Terminal Aerodrome Forecast
Issued by NWS Grand Forks, ND

Home | Current Version | Previous Version | Graphics & Text | Print | Product List | Glossary On
Versions: 1 2 3 4 5 6 7 8 9 10 11 12 13
000
FTUS43 KFGF 282320
TAFFAR
TAF
KFAR 282320Z 2900/2924 24020G30KT P6SM SCT080
     FM291200 28022G32KT P6SM SCT050=

USA.gov is the U.S. government's official web portal to all federal, state and local government web resources and services.